sensor_id;sensor_type;location;lat;lon;timestamp;temperature;humidity
23237;DHT22;11787;52.018;8.570;2022-09-20T00:01:22;11.10;99.90
23237;DHT22;11787;52.018;8.570;2022-09-20T00:03:51;11.00;99.90
23237;DHT22;11787;52.018;8.570;2022-09-20T00:06:20;11.00;99.90
23237;DHT22;11787;52.018;8.570;2022-09-20T00:08:46;10.90;99.90
23237;DHT22;11787;52.018;8.570;2022-09-20T00:11:15;10.90;99.90
23237;DHT22;11787;52.018;8.570;2022-09-20T00:13:43;11.00;99.90
23237;DHT22;11787;52.018;8.570;2022-09-20T00:16:12;10.90;99.90
23237;DHT22;11787;52.018;8.570;2022-09-20T00:18:38;10.90;99.90
23237;DHT22;11787;52.018;8.570;2022-09-20T00:21:04;10.80;99.90
23237;DHT22;11787;52.018;8.570;2022-09-20T00:23:31;10.80;99.90
23237;DHT22;11787;52.018;8.570;2022-09-20T00:25:59;10.80;99.90
23237;DHT22;11787;52.018;8.570;2022-09-20T00:28:26;10.80;99.90
23237;DHT22;11787;52.018;8.570;2022-09-20T00:30:53;10.80;99.90
23237;DHT22;11787;52.018;8.570;2022-09-20T00:33:20;10.80;99.90
23237;DHT22;11787;52.018;8.570;2022-09-20T00:35:46;10.80;99.90
23237;DHT22;11787;52.018;8.570;2022-09-20T00:38:13;10.80;99.90
23237;DHT22;11787;52.018;8.570;2022-09-20T00:40:43;10.80;99.90
23237;DHT22;11787;52.018;8.570;2022-09-20T00:43:14;10.80;99.90
23237;DHT22;11787;52.018;8.570;2022-09-20T00:45:41;10.70;99.90
23237;DHT22;11787;52.018;8.570;2022-09-20T00:48:12;10.80;99.90
23237;DHT22;11787;52.018;8.570;2022-09-20T00:50:40;10.70;99.90
23237;DHT22;11787;52.018;8.570;2022-09-20T00:53:29;10.70;99.90
23237;DHT22;11787;52.018;8.570;2022-09-20T00:55:56;10.70;99.90
23237;DHT22;11787;52.018;8.570;2022-09-20T00:58:24;10.70;99.90
23237;DHT22;11787;52.018;8.570;2022-09-20T01:00:53;10.70;99.90
23237;DHT22;11787;52.018;8.570;2022-09-20T01:03:21;10.80;99.90
23237;DHT22;11787;52.018;8.570;2022-09-20T01:05:48;10.80;99.90
23237;DHT22;11787;52.018;8.570;2022-09-20T01:08:15;10.80;99.90
23237;DHT22;11787;52.018;8.570;2022-09-20T01:10:41;10.80;99.90
23237;DHT22;11787;52.018;8.570;2022-09-20T01:13:07;10.80;99.90
23237;DHT22;11787;52.018;8.570;2022-09-20T01:15:36;10.80;99.90
23237;DHT22;11787;52.018;8.570;2022-09-20T01:18:05;10.80;99.90
23237;DHT22;11787;52.018;8.570;2022-09-20T01:20:37;10.80;99.90
23237;DHT22;11787;52.018;8.570;2022-09-20T01:26:45;10.70;99.90
23237;DHT22;11787;52.018;8.570;2022-09-20T01:29:40;10.70;99.90
23237;DHT22;11787;52.018;8.570;2022-09-20T01:32:16;10.60;99.90
23237;DHT22;11787;52.018;8.570;2022-09-20T01:34:45;10.60;99.90
23237;DHT22;11787;52.018;8.570;2022-09-20T01:40:12;10.50;99.90
23237;DHT22;11787;52.018;8.570;2022-09-20T01:42:47;10.30;99.90
23237;DHT22;11787;52.018;8.570;2022-09-20T01:45:29;10.20;99.90
23237;DHT22;11787;52.018;8.570;2022-09-20T01:48:11;10.20;99.90
23237;DHT22;11787;52.018;8.570;2022-09-20T01:50:47;10.10;99.90
23237;DHT22;11787;52.018;8.570;2022-09-20T02:24:18;10.20;99.90
23237;DHT22;11787;52.018;8.570;2022-09-20T02:47:21;10.30;99.90
23237;DHT22;11787;52.018;8.570;2022-09-20T02:54:59;10.30;99.90
23237;DHT22;11787;52.018;8.570;2022-09-20T03:00:14;10.20;99.90
23237;DHT22;11787;52.018;8.570;2022-09-20T03:09:12;10.20;99.90
23237;DHT22;11787;52.018;8.570;2022-09-20T03:11:46;10.20;99.90
23237;DHT22;11787;52.018;8.570;2022-09-20T03:19:58;10.10;99.90
23237;DHT22;11787;52.018;8.570;2022-09-20T03:23:40;10.10;99.90
23237;DHT22;11787;52.018;8.570;2022-09-20T03:28:40;10.10;99.90
23237;DHT22;11787;52.018;8.570;2022-09-20T03:31:18;10.10;99.90
23237;DHT22;11787;52.018;8.570;2022-09-20T03:42:14;10.00;99.90
23237;DHT22;11787;52.018;8.570;2022-09-20T03:44:50;10.00;99.90
23237;DHT22;11787;52.018;8.570;2022-09-20T03:50:19;10.20;99.90
23237;DHT22;11787;52.018;8.570;2022-09-20T03:53:19;10.20;99.90
23237;DHT22;11787;52.018;8.570;2022-09-20T04:06:56;10.30;99.90
23237;DHT22;11787;52.018;8.570;2022-09-20T04:12:41;10.10;99.90
23237;DHT22;11787;52.018;8.570;2022-09-20T04:20:33;9.90;99.90
23237;DHT22;11787;52.018;8.570;2022-09-20T04:25:58;9.90;99.90
23237;DHT22;11787;52.018;8.570;2022-09-20T04:28:39;9.90;99.90
23237;DHT22;11787;52.018;8.570;2022-09-20T04:31:37;9.90;99.90
23237;DHT22;11787;52.018;8.570;2022-09-20T04:34:12;9.90;99.90
23237;DHT22;11787;52.018;8.570;2022-09-20T04:39:33;9.90;99.90
23237;DHT22;11787;52.018;8.570;2022-09-20T04:45:19;9.80;99.90
23237;DHT22;11787;52.018;8.570;2022-09-20T05:12:47;9.80;99.90
23237;DHT22;11787;52.018;8.570;2022-09-20T05:22:51;9.70;99.90
23237;DHT22;11787;52.018;8.570;2022-09-20T05:25:37;9.70;99.90
23237;DHT22;11787;52.018;8.570;2022-09-20T05:31:10;9.80;99.90
23237;DHT22;11787;52.018;8.570;2022-09-20T05:33:47;9.80;99.90
23237;DHT22;11787;52.018;8.570;2022-09-20T05:36:35;9.80;99.90
23237;DHT22;11787;52.018;8.570;2022-09-20T05:41:53;9.90;99.90
23237;DHT22;11787;52.018;8.570;2022-09-20T05:50:13;9.90;99.90
23237;DHT22;11787;52.018;8.570;2022-09-20T05:53:23;10.00;99.90
23237;DHT22;11787;52.018;8.570;2022-09-20T06:17:35;10.20;99.90
23237;DHT22;11787;52.018;8.570;2022-09-20T06:23:03;10.20;99.90
23237;DHT22;11787;52.018;8.570;2022-09-20T06:25:55;10.20;99.90
23237;DHT22;11787;52.018;8.570;2022-09-20T06:28:43;10.20;99.90
23237;DHT22;11787;52.018;8.570;2022-09-20T06:31:10;10.30;99.90
23237;DHT22;11787;52.018;8.570;2022-09-20T06:33:46;10.30;99.90
23237;DHT22;11787;52.018;8.570;2022-09-20T06:36:21;10.30;99.90
23237;DHT22;11787;52.018;8.570;2022-09-20T06:39:43;10.40;99.90
23237;DHT22;11787;52.018;8.570;2022-09-20T06:42:28;10.50;99.90
23237;DHT22;11787;52.018;8.570;2022-09-20T06:44:55;10.40;99.90
23237;DHT22;11787;52.018;8.570;2022-09-20T06:47:21;10.40;99.90
23237;DHT22;11787;52.018;8.570;2022-09-20T06:49:48;10.40;99.90
23237;DHT22;11787;52.018;8.570;2022-09-20T06:52:19;10.50;99.90
23237;DHT22;11787;52.018;8.570;2022-09-20T06:54:46;10.50;99.90
23237;DHT22;11787;52.018;8.570;2022-09-20T06:57:20;10.50;99.90
23237;DHT22;11787;52.018;8.570;2022-09-20T06:59:47;10.40;99.90
23237;DHT22;11787;52.018;8.570;2022-09-20T07:02:13;10.50;99.90
23237;DHT22;11787;52.018;8.570;2022-09-20T07:04:38;10.50;99.90
23237;DHT22;11787;52.018;8.570;2022-09-20T07:07:05;10.50;99.90
23237;DHT22;11787;52.018;8.570;2022-09-20T07:09:31;10.50;99.90
23237;DHT22;11787;52.018;8.570;2022-09-20T07:11:57;10.50;99.90
23237;DHT22;11787;52.018;8.570;2022-09-20T07:14:25;10.50;99.90
23237;DHT22;11787;52.018;8.570;2022-09-20T07:16:54;10.50;99.90
23237;DHT22;11787;52.018;8.570;2022-09-20T07:19:20;10.60;99.90
23237;DHT22;11787;52.018;8.570;2022-09-20T07:21:47;10.50;99.90
23237;DHT22;11787;52.018;8.570;2022-09-20T07:24:12;10.40;99.90
23237;DHT22;11787;52.018;8.570;2022-09-20T07:26:39;10.40;99.90
23237;DHT22;11787;52.018;8.570;2022-09-20T07:29:18;10.40;99.90
23237;DHT22;11787;52.018;8.570;2022-09-20T07:31:44;10.40;99.90
23237;DHT22;11787;52.018;8.570;2022-09-20T07:34:09;10.40;99.90
23237;DHT22;11787;52.018;8.570;2022-09-20T07:36:35;10.40;99.90
23237;DHT22;11787;52.018;8.570;2022-09-20T07:39:01;10.50;99.90
23237;DHT22;11787;52.018;8.570;2022-09-20T07:41:27;10.60;99.90
23237;DHT22;11787;52.018;8.570;2022-09-20T07:43:55;10.60;99.90
23237;DHT22;11787;52.018;8.570;2022-09-20T07:46:41;10.60;99.90
23237;DHT22;11787;52.018;8.570;2022-09-20T07:49:07;10.60;99.90
23237;DHT22;11787;52.018;8.570;2022-09-20T07:51:33;10.60;99.90
23237;DHT22;11787;52.018;8.570;2022-09-20T07:53:58;10.60;99.90
23237;DHT22;11787;52.018;8.570;2022-09-20T07:56:24;10.60;99.90
23237;DHT22;11787;52.018;8.570;2022-09-20T07:58:50;10.80;99.90
23237;DHT22;11787;52.018;8.570;2022-09-20T08:01:15;10.90;99.90
23237;DHT22;11787;52.018;8.570;2022-09-20T08:03:41;11.00;99.90
23237;DHT22;11787;52.018;8.570;2022-09-20T08:06:09;11.00;99.90
23237;DHT22;11787;52.018;8.570;2022-09-20T08:08:37;11.20;99.90
23237;DHT22;11787;52.018;8.570;2022-09-20T08:11:04;11.20;99.90
23237;DHT22;11787;52.018;8.570;2022-09-20T08:13:38;11.30;99.90
23237;DHT22;11787;52.018;8.570;2022-09-20T08:16:06;11.40;99.90
23237;DHT22;11787;52.018;8.570;2022-09-20T08:18:33;11.50;99.90
23237;DHT22;11787;52.018;8.570;2022-09-20T08:21:08;11.50;99.90
23237;DHT22;11787;52.018;8.570;2022-09-20T08:23:35;11.60;99.90
23237;DHT22;11787;52.018;8.570;2022-09-20T08:26:02;11.70;99.90
23237;DHT22;11787;52.018;8.570;2022-09-20T08:28:29;11.90;99.90
23237;DHT22;11787;52.018;8.570;2022-09-20T08:31:09;12.00;99.90
23237;DHT22;11787;52.018;8.570;2022-09-20T08:33:37;12.00;99.90
23237;DHT22;11787;52.018;8.570;2022-09-20T08:36:07;12.00;99.90
23237;DHT22;11787;52.018;8.570;2022-09-20T08:38:33;12.00;99.90
23237;DHT22;11787;52.018;8.570;2022-09-20T08:41:13;12.20;99.90
23237;DHT22;11787;52.018;8.570;2022-09-20T08:46:14;12.40;99.90
23237;DHT22;11787;52.018;8.570;2022-09-20T08:48:41;12.40;99.90
23237;DHT22;11787;52.018;8.570;2022-09-20T08:51:10;12.60;99.90
23237;DHT22;11787;52.018;8.570;2022-09-20T08:53:42;12.80;99.90
23237;DHT22;11787;52.018;8.570;2022-09-20T08:56:09;12.80;99.90
23237;DHT22;11787;52.018;8.570;2022-09-20T08:58:36;12.70;99.90
23237;DHT22;11787;52.018;8.570;2022-09-20T09:01:02;12.80;99.90
23237;DHT22;11787;52.018;8.570;2022-09-20T09:03:28;13.00;99.90
23237;DHT22;11787;52.018;8.570;2022-09-20T09:05:55;13.10;99.90
23237;DHT22;11787;52.018;8.570;2022-09-20T09:08:32;13.30;99.90
23237;DHT22;11787;52.018;8.570;2022-09-20T09:11:02;13.40;99.90
23237;DHT22;11787;52.018;8.570;2022-09-20T09:13:53;13.30;99.90
23237;DHT22;11787;52.018;8.570;2022-09-20T09:16:23;13.20;99.90
23237;DHT22;11787;52.018;8.570;2022-09-20T09:18:49;13.10;99.90
23237;DHT22;11787;52.018;8.570;2022-09-20T09:24:11;13.30;99.90
23237;DHT22;11787;52.018;8.570;2022-09-20T09:26:39;13.50;99.90
23237;DHT22;11787;52.018;8.570;2022-09-20T09:29:23;13.70;99.90
23237;DHT22;11787;52.018;8.570;2022-09-20T09:31:51;13.80;99.90
23237;DHT22;11787;52.018;8.570;2022-09-20T09:34:28;14.00;99.90
23237;DHT22;11787;52.018;8.570;2022-09-20T09:36:54;14.00;99.90
23237;DHT22;11787;52.018;8.570;2022-09-20T09:39:31;14.20;99.90
23237;DHT22;11787;52.018;8.570;2022-09-20T09:41:58;14.40;99.90
23237;DHT22;11787;52.018;8.570;2022-09-20T09:44:31;14.50;99.90
23237;DHT22;11787;52.018;8.570;2022-09-20T09:47:00;14.60;99.90
23237;DHT22;11787;52.018;8.570;2022-09-20T09:49:30;14.70;99.90
23237;DHT22;11787;52.018;8.570;2022-09-20T09:54:34;14.70;99.90
23237;DHT22;11787;52.018;8.570;2022-09-20T09:57:23;15.30;99.90
23237;DHT22;11787;52.018;8.570;2022-09-20T10:00:12;15.30;99.90
23237;DHT22;11787;52.018;8.570;2022-09-20T10:05:38;15.60;99.90
23237;DHT22;11787;52.018;8.570;2022-09-20T10:11:39;15.40;99.90
23237;DHT22;11787;52.018;8.570;2022-09-20T10:14:07;15.40;99.90
23237;DHT22;11787;52.018;8.570;2022-09-20T10:19:56;15.20;99.90
23237;DHT22;11787;52.018;8.570;2022-09-20T10:27:49;15.00;99.90
23237;DHT22;11787;52.018;8.570;2022-09-20T10:30:23;14.80;99.90
23237;DHT22;11787;52.018;8.570;2022-09-20T10:41:02;14.40;99.90
23237;DHT22;11787;52.018;8.570;2022-09-20T10:46:39;13.80;99.90
23237;DHT22;11787;52.018;8.570;2022-09-20T11:06:14;13.30;99.90
23237;DHT22;11787;52.018;8.570;2022-09-20T11:08:42;13.60;99.90
23237;DHT22;11787;52.018;8.570;2022-09-20T11:31:47;13.70;99.90
23237;DHT22;11787;52.018;8.570;2022-09-20T11:34:31;13.70;99.90
23237;DHT22;11787;52.018;8.570;2022-09-20T11:37:01;13.60;99.90
23237;DHT22;11787;52.018;8.570;2022-09-20T11:42:03;13.80;99.90
23237;DHT22;11787;52.018;8.570;2022-09-20T11:44:30;13.80;99.90
23237;DHT22;11787;52.018;8.570;2022-09-20T11:58:17;14.40;99.90
23237;DHT22;11787;52.018;8.570;2022-09-20T12:00:47;14.70;99.90
23237;DHT22;11787;52.018;8.570;2022-09-20T12:06:20;15.20;99.90
23237;DHT22;11787;52.018;8.570;2022-09-20T12:08:49;15.50;99.90
23237;DHT22;11787;52.018;8.570;2022-09-20T12:11:15;15.60;99.90
23237;DHT22;11787;52.018;8.570;2022-09-20T12:13:52;15.60;99.90
23237;DHT22;11787;52.018;8.570;2022-09-20T12:19:04;15.60;99.90
23237;DHT22;11787;52.018;8.570;2022-09-20T12:24:26;15.40;99.90
23237;DHT22;11787;52.018;8.570;2022-09-20T12:26:55;15.50;99.90
23237;DHT22;11787;52.018;8.570;2022-09-20T12:31:55;15.60;99.90
23237;DHT22;11787;52.018;8.570;2022-09-20T12:39:26;15.60;99.90
23237;DHT22;11787;52.018;8.570;2022-09-20T12:41:58;15.60;99.90
23237;DHT22;11787;52.018;8.570;2022-09-20T12:47:02;15.60;99.90
23237;DHT22;11787;52.018;8.570;2022-09-20T12:49:30;15.60;99.90
23237;DHT22;11787;52.018;8.570;2022-09-20T12:58:03;15.50;99.90
23237;DHT22;11787;52.018;8.570;2022-09-20T13:11:09;15.20;99.90
23237;DHT22;11787;52.018;8.570;2022-09-20T13:13:48;15.00;99.90
23237;DHT22;11787;52.018;8.570;2022-09-20T13:16:21;14.90;99.90
23237;DHT22;11787;52.018;8.570;2022-09-20T13:21:32;15.10;99.90
23237;DHT22;11787;52.018;8.570;2022-09-20T13:23:59;15.20;99.90
23237;DHT22;11787;52.018;8.570;2022-09-20T13:26:28;15.10;99.90
23237;DHT22;11787;52.018;8.570;2022-09-20T13:28:57;15.00;99.90
23237;DHT22;11787;52.018;8.570;2022-09-20T13:31:30;15.00;99.90
23237;DHT22;11787;52.018;8.570;2022-09-20T13:34:20;14.90;99.90
23237;DHT22;11787;52.018;8.570;2022-09-20T13:36:48;14.80;99.90
23237;DHT22;11787;52.018;8.570;2022-09-20T13:39:30;14.80;99.90
23237;DHT22;11787;52.018;8.570;2022-09-20T13:42:06;14.80;99.90
23237;DHT22;11787;52.018;8.570;2022-09-20T13:44:33;14.80;99.90
23237;DHT22;11787;52.018;8.570;2022-09-20T13:47:00;14.90;99.90
23237;DHT22;11787;52.018;8.570;2022-09-20T13:49:30;14.80;99.90
23237;DHT22;11787;52.018;8.570;2022-09-20T13:51:56;14.80;99.90
23237;DHT22;11787;52.018;8.570;2022-09-20T13:54:30;14.90;99.90
23237;DHT22;11787;52.018;8.570;2022-09-20T13:57:02;15.00;99.90
23237;DHT22;11787;52.018;8.570;2022-09-20T13:59:34;14.90;99.90
23237;DHT22;11787;52.018;8.570;2022-09-20T14:02:01;15.10;99.90
23237;DHT22;11787;52.018;8.570;2022-09-20T14:04:28;15.30;99.90
23237;DHT22;11787;52.018;8.570;2022-09-20T14:06:57;15.50;99.90
23237;DHT22;11787;52.018;8.570;2022-09-20T14:09:32;15.40;99.90
23237;DHT22;11787;52.018;8.570;2022-09-20T14:11:59;15.40;99.90
23237;DHT22;11787;52.018;8.570;2022-09-20T14:14:25;15.10;99.90
23237;DHT22;11787;52.018;8.570;2022-09-20T14:16:54;14.80;99.90
23237;DHT22;11787;52.018;8.570;2022-09-20T14:19:29;14.50;99.90
23237;DHT22;11787;52.018;8.570;2022-09-20T14:21:56;14.40;99.90
23237;DHT22;11787;52.018;8.570;2022-09-20T14:24:31;14.40;99.90
23237;DHT22;11787;52.018;8.570;2022-09-20T14:27:04;14.40;99.90
23237;DHT22;11787;52.018;8.570;2022-09-20T14:32:00;14.30;99.90
23237;DHT22;11787;52.018;8.570;2022-09-20T14:34:27;14.30;99.90
23237;DHT22;11787;52.018;8.570;2022-09-20T14:37:16;14.30;99.90
23237;DHT22;11787;52.018;8.570;2022-09-20T14:39:56;14.20;99.90
23237;DHT22;11787;52.018;8.570;2022-09-20T14:44:54;14.20;99.90
23237;DHT22;11787;52.018;8.570;2022-09-20T14:47:26;14.20;99.90
23237;DHT22;11787;52.018;8.570;2022-09-20T14:49:52;14.30;99.90
23237;DHT22;11787;52.018;8.570;2022-09-20T14:55:09;14.20;99.90
23237;DHT22;11787;52.018;8.570;2022-09-20T14:57:41;14.30;99.90
23237;DHT22;11787;52.018;8.570;2022-09-20T15:00:15;14.40;99.90
23237;DHT22;11787;52.018;8.570;2022-09-20T15:02:44;14.30;99.90
23237;DHT22;11787;52.018;8.570;2022-09-20T15:05:25;14.40;99.90
23237;DHT22;11787;52.018;8.570;2022-09-20T15:07:52;14.50;99.90
23237;DHT22;11787;52.018;8.570;2022-09-20T15:10:20;14.60;99.90
23237;DHT22;11787;52.018;8.570;2022-09-20T15:12:45;14.70;99.90
23237;DHT22;11787;52.018;8.570;2022-09-20T15:15:13;14.80;99.90
23237;DHT22;11787;52.018;8.570;2022-09-20T15:17:40;15.00;99.90
23237;DHT22;11787;52.018;8.570;2022-09-20T15:20:12;15.10;99.90
23237;DHT22;11787;52.018;8.570;2022-09-20T15:22:39;15.10;99.90
23237;DHT22;11787;52.018;8.570;2022-09-20T15:25:05;15.10;99.90
23237;DHT22;11787;52.018;8.570;2022-09-20T15:27:31;15.00;99.90
23237;DHT22;11787;52.018;8.570;2022-09-20T15:29:57;14.90;99.90
23237;DHT22;11787;52.018;8.570;2022-09-20T15:32:23;15.00;99.90
23237;DHT22;11787;52.018;8.570;2022-09-20T15:34:49;15.10;99.90
23237;DHT22;11787;52.018;8.570;2022-09-20T15:37:14;15.00;99.90
23237;DHT22;11787;52.018;8.570;2022-09-20T15:39:40;15.00;99.90
23237;DHT22;11787;52.018;8.570;2022-09-20T15:42:05;14.90;99.90
23237;DHT22;11787;52.018;8.570;2022-09-20T15:44:31;14.80;99.90
23237;DHT22;11787;52.018;8.570;2022-09-20T15:46:57;14.80;99.90
23237;DHT22;11787;52.018;8.570;2022-09-20T15:49:22;14.80;99.90
23237;DHT22;11787;52.018;8.570;2022-09-20T15:51:48;14.80;99.90
23237;DHT22;11787;52.018;8.570;2022-09-20T15:54:14;14.80;99.90
23237;DHT22;11787;52.018;8.570;2022-09-20T15:56:40;14.80;99.90
23237;DHT22;11787;52.018;8.570;2022-09-20T15:59:07;14.80;99.90
23237;DHT22;11787;52.018;8.570;2022-09-20T16:01:35;14.80;99.90
23237;DHT22;11787;52.018;8.570;2022-09-20T16:04:09;14.80;99.90
23237;DHT22;11787;52.018;8.570;2022-09-20T16:06:37;14.80;99.90
23237;DHT22;11787;52.018;8.570;2022-09-20T16:09:04;14.80;99.90
23237;DHT22;11787;52.018;8.570;2022-09-20T16:11:29;14.80;99.90
23237;DHT22;11787;52.018;8.570;2022-09-20T16:13:56;14.80;99.90
23237;DHT22;11787;52.018;8.570;2022-09-20T16:16:23;14.70;99.90
23237;DHT22;11787;52.018;8.570;2022-09-20T16:18:48;14.70;99.90
23237;DHT22;11787;52.018;8.570;2022-09-20T16:21:33;14.70;99.90
23237;DHT22;11787;52.018;8.570;2022-09-20T16:23:59;14.70;99.90
23237;DHT22;11787;52.018;8.570;2022-09-20T16:26:26;14.60;99.90
23237;DHT22;11787;52.018;8.570;2022-09-20T16:28:53;14.60;99.90
23237;DHT22;11787;52.018;8.570;2022-09-20T16:34:00;14.50;99.90
23237;DHT22;11787;52.018;8.570;2022-09-20T16:36:26;14.50;99.90
23237;DHT22;11787;52.018;8.570;2022-09-20T16:38:52;14.40;99.90
23237;DHT22;11787;52.018;8.570;2022-09-20T16:41:20;14.30;99.90
23237;DHT22;11787;52.018;8.570;2022-09-20T16:43:47;14.20;99.90
23237;DHT22;11787;52.018;8.570;2022-09-20T16:46:19;14.20;99.90
23237;DHT22;11787;52.018;8.570;2022-09-20T16:48:46;14.20;99.90
23237;DHT22;11787;52.018;8.570;2022-09-20T16:51:13;14.10;99.90
23237;DHT22;11787;52.018;8.570;2022-09-20T16:53:39;14.10;99.90
23237;DHT22;11787;52.018;8.570;2022-09-20T16:56:05;14.10;99.90
23237;DHT22;11787;52.018;8.570;2022-09-20T16:58:32;13.90;99.90
23237;DHT22;11787;52.018;8.570;2022-09-20T17:01:05;13.90;99.90
23237;DHT22;11787;52.018;8.570;2022-09-20T17:03:31;14.00;99.90
23237;DHT22;11787;52.018;8.570;2022-09-20T17:06:03;13.90;99.90
23237;DHT22;11787;52.018;8.570;2022-09-20T17:08:29;13.90;99.90
23237;DHT22;11787;52.018;8.570;2022-09-20T17:10:59;13.80;99.90
23237;DHT22;11787;52.018;8.570;2022-09-20T17:13:26;13.80;99.90
23237;DHT22;11787;52.018;8.570;2022-09-20T17:16:05;13.80;99.90
23237;DHT22;11787;52.018;8.570;2022-09-20T17:18:30;13.80;99.90
23237;DHT22;11787;52.018;8.570;2022-09-20T17:21:02;13.60;99.90
23237;DHT22;11787;52.018;8.570;2022-09-20T17:23:28;13.60;99.90
23237;DHT22;11787;52.018;8.570;2022-09-20T17:26:05;13.60;99.90
23237;DHT22;11787;52.018;8.570;2022-09-20T17:28:38;13.50;99.90
23237;DHT22;11787;52.018;8.570;2022-09-20T17:31:06;13.40;99.90
23237;DHT22;11787;52.018;8.570;2022-09-20T17:33:34;13.40;99.90
23237;DHT22;11787;52.018;8.570;2022-09-20T17:35:59;13.40;99.90
23237;DHT22;11787;52.018;8.570;2022-09-20T17:38:31;13.20;99.90
23237;DHT22;11787;52.018;8.570;2022-09-20T17:41:16;13.20;99.90
23237;DHT22;11787;52.018;8.570;2022-09-20T17:43:43;13.20;99.90
23237;DHT22;11787;52.018;8.570;2022-09-20T17:46:17;13.10;99.90
23237;DHT22;11787;52.018;8.570;2022-09-20T17:48:45;13.10;99.90
23237;DHT22;11787;52.018;8.570;2022-09-20T17:51:14;13.00;99.90
23237;DHT22;11787;52.018;8.570;2022-09-20T17:53:40;13.00;99.90
23237;DHT22;11787;52.018;8.570;2022-09-20T17:56:06;13.00;99.90
23237;DHT22;11787;52.018;8.570;2022-09-20T17:58:35;12.90;99.90
23237;DHT22;11787;52.018;8.570;2022-09-20T18:03:39;12.80;99.90
23237;DHT22;11787;52.018;8.570;2022-09-20T18:06:20;12.70;99.90
23237;DHT22;11787;52.018;8.570;2022-09-20T18:08:54;12.70;99.90
23237;DHT22;11787;52.018;8.570;2022-09-20T18:11:26;12.60;99.90
23237;DHT22;11787;52.018;8.570;2022-09-20T18:13:53;12.60;99.90
23237;DHT22;11787;52.018;8.570;2022-09-20T18:16:18;12.50;99.90
23237;DHT22;11787;52.018;8.570;2022-09-20T18:18:45;12.50;99.90
23237;DHT22;11787;52.018;8.570;2022-09-20T18:21:21;12.40;99.90
23237;DHT22;11787;52.018;8.570;2022-09-20T18:23:47;12.40;99.90
23237;DHT22;11787;52.018;8.570;2022-09-20T18:26:16;12.40;99.90
23237;DHT22;11787;52.018;8.570;2022-09-20T18:31:16;12.30;99.90
23237;DHT22;11787;52.018;8.570;2022-09-20T18:33:43;12.20;99.90
23237;DHT22;11787;52.018;8.570;2022-09-20T18:36:09;12.10;99.90
23237;DHT22;11787;52.018;8.570;2022-09-20T18:38:35;12.10;99.90
23237;DHT22;11787;52.018;8.570;2022-09-20T18:41:02;12.00;99.90
23237;DHT22;11787;52.018;8.570;2022-09-20T18:43:29;11.90;99.90
23237;DHT22;11787;52.018;8.570;2022-09-20T18:45:56;11.90;99.90
23237;DHT22;11787;52.018;8.570;2022-09-20T18:48:23;11.80;99.90
23237;DHT22;11787;52.018;8.570;2022-09-20T18:51:00;11.70;99.90
23237;DHT22;11787;52.018;8.570;2022-09-20T18:53:27;11.70;99.90
23237;DHT22;11787;52.018;8.570;2022-09-20T18:55:53;11.60;99.90
23237;DHT22;11787;52.018;8.570;2022-09-20T18:58:21;11.50;99.90
23237;DHT22;11787;52.018;8.570;2022-09-20T19:04:06;11.40;99.90
23237;DHT22;11787;52.018;8.570;2022-09-20T19:06:46;11.30;99.90
23237;DHT22;11787;52.018;8.570;2022-09-20T19:09:23;11.30;99.90
23237;DHT22;11787;52.018;8.570;2022-09-20T19:11:59;11.30;99.90
23237;DHT22;11787;52.018;8.570;2022-09-20T19:14:42;11.30;99.90
23237;DHT22;11787;52.018;8.570;2022-09-20T19:17:15;11.30;99.90
23237;DHT22;11787;52.018;8.570;2022-09-20T19:25:24;11.30;99.90
23237;DHT22;11787;52.018;8.570;2022-09-20T19:27:52;11.20;99.90
23237;DHT22;11787;52.018;8.570;2022-09-20T19:30:19;11.20;99.90
23237;DHT22;11787;52.018;8.570;2022-09-20T19:32:44;11.10;99.90
23237;DHT22;11787;52.018;8.570;2022-09-20T19:35:21;11.10;99.90
23237;DHT22;11787;52.018;8.570;2022-09-20T19:38:25;11.00;99.90
23237;DHT22;11787;52.018;8.570;2022-09-20T19:49:12;11.00;99.90
23237;DHT22;11787;52.018;8.570;2022-09-20T19:51:40;10.90;99.90
23237;DHT22;11787;52.018;8.570;2022-09-20T19:54:10;10.80;99.90
23237;DHT22;11787;52.018;8.570;2022-09-20T19:56:44;10.80;99.90
23237;DHT22;11787;52.018;8.570;2022-09-20T19:59:13;10.80;99.90
23237;DHT22;11787;52.018;8.570;2022-09-20T20:01:39;10.80;99.90
23237;DHT22;11787;52.018;8.570;2022-09-20T20:04:07;10.70;99.90
23237;DHT22;11787;52.018;8.570;2022-09-20T20:07:23;10.70;99.90
23237;DHT22;11787;52.018;8.570;2022-09-20T20:09:41;10.70;99.90
23237;DHT22;11787;52.018;8.570;2022-09-20T20:12:13;10.60;99.90
23237;DHT22;11787;52.018;8.570;2022-09-20T20:14:48;10.60;99.90
23237;DHT22;11787;52.018;8.570;2022-09-20T20:28:17;10.40;99.90
23237;DHT22;11787;52.018;8.570;2022-09-20T20:30:43;10.40;99.90
23237;DHT22;11787;52.018;8.570;2022-09-20T20:33:15;10.40;99.90
23237;DHT22;11787;52.018;8.570;2022-09-20T20:35:41;10.30;99.90
23237;DHT22;11787;52.018;8.570;2022-09-20T20:38:07;10.30;99.90
23237;DHT22;11787;52.018;8.570;2022-09-20T20:40:35;10.30;99.90
23237;DHT22;11787;52.018;8.570;2022-09-20T20:43:01;10.20;99.90
23237;DHT22;11787;52.018;8.570;2022-09-20T20:45:28;10.20;99.90
23237;DHT22;11787;52.018;8.570;2022-09-20T20:47:57;10.10;99.90
23237;DHT22;11787;52.018;8.570;2022-09-20T20:50:27;10.00;99.90
23237;DHT22;11787;52.018;8.570;2022-09-20T20:52:54;9.90;99.90
23237;DHT22;11787;52.018;8.570;2022-09-20T20:55:21;9.90;99.90
23237;DHT22;11787;52.018;8.570;2022-09-20T20:57:55;9.90;99.90
23237;DHT22;11787;52.018;8.570;2022-09-20T21:00:26;9.80;99.90
23237;DHT22;11787;52.018;8.570;2022-09-20T21:02:59;9.70;99.90
23237;DHT22;11787;52.018;8.570;2022-09-20T21:05:26;9.70;99.90
23237;DHT22;11787;52.018;8.570;2022-09-20T21:07:52;9.70;99.90
23237;DHT22;11787;52.018;8.570;2022-09-20T21:10:18;9.60;99.90
23237;DHT22;11787;52.018;8.570;2022-09-20T21:12:48;9.60;99.90
23237;DHT22;11787;52.018;8.570;2022-09-20T21:15:18;9.60;99.90
23237;DHT22;11787;52.018;8.570;2022-09-20T21:17:50;9.60;99.90
23237;DHT22;11787;52.018;8.570;2022-09-20T21:20:15;9.60;99.90
23237;DHT22;11787;52.018;8.570;2022-09-20T21:22:41;9.60;99.90
23237;DHT22;11787;52.018;8.570;2022-09-20T21:25:06;9.50;99.90
23237;DHT22;11787;52.018;8.570;2022-09-20T21:27:32;9.60;99.90
23237;DHT22;11787;52.018;8.570;2022-09-20T21:30:02;9.60;99.90
23237;DHT22;11787;52.018;8.570;2022-09-20T21:32:27;9.60;99.90
23237;DHT22;11787;52.018;8.570;2022-09-20T21:34:53;9.60;99.90
23237;DHT22;11787;52.018;8.570;2022-09-20T21:37:19;9.60;99.90
23237;DHT22;11787;52.018;8.570;2022-09-20T21:39:44;9.60;99.90
23237;DHT22;11787;52.018;8.570;2022-09-20T21:42:11;9.50;99.90
23237;DHT22;11787;52.018;8.570;2022-09-20T21:44:38;9.50;99.90
23237;DHT22;11787;52.018;8.570;2022-09-20T21:47:05;9.40;99.90
23237;DHT22;11787;52.018;8.570;2022-09-20T21:49:32;9.40;99.90
23237;DHT22;11787;52.018;8.570;2022-09-20T21:51:58;9.40;99.90